CheckWX is a tool to help pilots better visualize weather data.  It is not intended as a substitute for an official pre-flight weather briefing.

01:12:53 UTC

KOXV METAR
Knoxville Municipal Airport
Knoxville, Iowa, USA
Current

18 mins ago

KOXV 200055Z AUTO 20010KT 10SM CLR 32/27 A2973 RMK AO2
Observed
Jul-20 @ 00:55 UTC
Wind
  • 200° at 10 KTS
Visibility
10 SM
Flight Rules
VFR
Cloud Levels
  • Clear skies
Temperature
32°C / 90°F
Dewpoint
27°C / 81°F
Heat Index
43°C / 109°F
Humidity
75%
Altimeter
29.73" Hg
Pressure
1006.82 hPa
Previous

38 mins ago

KOXV 200035Z AUTO 19010G15KT 10SM CLR 32/27 A2973 RMK AO2
Observed
Jul-20 @ 00:35 UTC
Wind
  • 190° at 10 KTS
  • Gusting to 15 KTS
Visibility
10 SM
Flight Rules
VFR
Cloud Levels
  • Clear skies
Temperature
32°C / 90°F
Dewpoint
27°C / 81°F
Heat Index
43°C / 109°F
Humidity
75%
Altimeter
29.73" Hg
Pressure
1006.82 hPa
Previous

58 mins ago

KOXV 200015Z AUTO 20009G14KT 10SM CLR 33/27 A2973 RMK AO2
Observed
Jul-20 @ 00:15 UTC
Wind
  • 200° at 9 KTS
  • Gusting to 14 KTS
Visibility
10 SM
Flight Rules
VFR
Cloud Levels
  • Clear skies
Temperature
33°C / 91°F
Dewpoint
27°C / 81°F
Heat Index
43°C / 110°F
Humidity
71%
Altimeter
29.73" Hg
Pressure
1006.82 hPa